Wetterdaten: Woche 02.12.19 - 08.12.19 (KW49)
Datum Zeit Temp. Aussen Temp. o. S. Temp +5cm Feuchte Auss Luftdruck Regen Sonnenschein Regendauer Solar Windben Empfang
02.12.2019 00:00 0,6 C 0,0 C -0,6 C 95 % 1023,6 hPa 0,0 l/m 0,00 h 0,00 h 0 W/m 1,9 km/h (1 Bft) 97,54 %
02.12.2019 01:00 0,6 C -0,3 C -0,6 C 96 % 1023,7 hPa 0,0 l/m 0,00 h 0,00 h 0 W/m 0,3 km/h (0 Bft) 95,80 %
02.12.2019 02:00 0,1 C -1,4 C -1,9 C 96 % 1024,2 hPa 0,0 l/m 0,00 h 0,00 h 0 W/m 0,1 km/h (0 Bft) 97,45 %
02.12.2019 03:00 -0,4 C -1,5 C -2,1 C 96 % 1024,6 hPa 0,0 l/m 0,00 h 0,00 h 0 W/m 0,0 km/h (0 Bft) 96,72 %
02.12.2019 04:00 -0,8 C -1,9 C -2,6 C 96 % 1024,6 hPa 0,0 l/m 0,00 h 0,00 h 0 W/m 0,7 km/h (0 Bft) 95,16 %
02.12.2019 05:00 -0,5 C -1,1 C -1,4 C 97 % 1025,0 hPa 0,0 l/m 0,00 h 0,00 h 0 W/m 2,9 km/h (1 Bft) 96,65 %
02.12.2019 06:00 -0,1 C -0,7 C -1,1 C 98 % 1025,4 hPa 0,0 l/m 0,00 h 0,00 h 0 W/m 2,3 km/h (1 Bft) 96,41 %
02.12.2019 07:00 0,1 C -0,5 C -0,7 C 98 % 1025,6 hPa 0,0 l/m 0,00 h 0,00 h 0 W/m 1,8 km/h (1 Bft) 99,57 %
02.12.2019 08:00 0,5 C -0,0 C -0,6 C 98 % 1025,9 hPa 0,0 l/m 0,00 h 0,00 h 12 W/m 1,1 km/h (0 Bft) 95,37 %
02.12.2019 09:00 0,7 C 0,6 C -0,0 C 99 % 1026,5 hPa 0,0 l/m 0,07 h 0,00 h 42 W/m 1,1 km/h (0 Bft) 95,94 %
02.12.2019 10:00 1,7 C 3,2 C 1,1 C 99 % 1027,2 hPa 0,0 l/m 0,30 h 0,00 h 114 W/m 4,1 km/h (1 Bft) 99,29 %
02.12.2019 11:00 2,8 C 4,1 C 2,6 C 99 % 1027,3 hPa 0,0 l/m 0,17 h 0,13 h 127 W/m 5,8 km/h (2 Bft) 96,08 %
02.12.2019 12:00 3,8 C 5,0 C 3,6 C 99 % 1027,3 hPa 0,0 l/m 0,27 h 0,00 h 137 W/m 4,4 km/h (1 Bft) 97,31 %
02.12.2019 13:00 4,6 C 5,0 C 3,3 C 99 % 1027,2 hPa 0,2 l/m 0,23 h 0,20 h 106 W/m 4,7 km/h (1 Bft) 96,66 %
02.12.2019 14:00 5,6 C 7,7 C 3,9 C 98 % 1027,1 hPa 0,0 l/m 0,70 h 0,00 h 145 W/m 4,1 km/h (1 Bft) 98,51 %
02.12.2019 15:00 5,6 C 5,0 C 3,5 C 97 % 1027,3 hPa 0,0 l/m 0,00 h 0,00 h 37 W/m 3,0 km/h (1 Bft) 96,51 %
02.12.2019 16:00 4,8 C 3,5 C 2,3 C 96 % 1027,5 hPa 0,0 l/m 0,00 h 0,00 h 11 W/m 1,1 km/h (0 Bft) 97,37 %
02.12.2019 17:00 4,0 C 3,0 C 2,1 C 96 % 1027,8 hPa 0,0 l/m 0,00 h 0,00 h 0 W/m 1,2 km/h (1 Bft) 97,65 %
02.12.2019 18:00 4,3 C 3,8 C 3,0 C 97 % 1028,0 hPa 0,0 l/m 0,00 h 0,00 h 0 W/m 3,3 km/h (1 Bft) 97,17 %
02.12.2019 19:00 4,3 C 3,5 C 2,8 C 98 % 1028,4 hPa 0,0 l/m 0,00 h 0,00 h 0 W/m 3,4 km/h (1 Bft) 98,15 %
02.12.2019 20:00 4,4 C 3,9 C 3,3 C 98 % 1028,7 hPa 0,0 l/m 0,00 h 0,00 h 0 W/m 2,2 km/h (1 Bft) 94,94 %
02.12.2019 21:00 4,5 C 3,9 C 3,2 C 99 % 1028,9 hPa 0,2 l/m 0,00 h 0,10 h 0 W/m 1,2 km/h (1 Bft) 98,65 %
02.12.2019 22:00 4,7 C 3,9 C 3,3 C 99 % 1029,1 hPa 0,0 l/m 0,00 h 0,23 h 0 W/m 1,3 km/h (1 Bft) 98,28 %
02.12.2019 23:00 4,8 C 3,9 C 3,3 C 99 % 1029,2 hPa 0,0 l/m 0,00 h 0,00 h 0 W/m 0,7 km/h (0 Bft) 94,66 %
03.12.2019 00:00 4,9 C 4,3 C 3,7 C 99 % 1029,3 hPa 0,0 l/m 0,00 h 0,00 h 0 W/m 1,0 km/h (0 Bft) 98,82 %
03.12.2019 01:00 5,1 C 4,4 C 3,9 C 99 % 1029,3 hPa 0,0 l/m 0,00 h 0,00 h 0 W/m 2,4 km/h (1 Bft) 97,96 %
03.12.2019 02:00 5,2 C 4,4 C 3,9 C 99 % 1029,5 hPa 0,6 l/m 0,00 h 0,13 h 0 W/m 1,2 km/h (1 Bft) 95,75 %
03.12.2019 03:00 5,2 C 4,4 C 3,9 C 100 % 1029,5 hPa 0,0 l/m 0,00 h 0,07 h 0 W/m 0,3 km/h (0 Bft) 98,72 %
03.12.2019 04:00 5,1 C 4,4 C 3,9 C 100 % 1029,3 hPa 0,2 l/m 0,00 h 0,30 h 0 W/m 0,4 km/h (0 Bft) 95,83 %
03.12.2019 05:00 5,1 C 4,0 C 3,2 C 100 % 1029,3 hPa 0,0 l/m 0,00 h 0,00 h 0 W/m 0,1 km/h (0 Bft) 97,84 %
03.12.2019 06:00 4,4 C 3,1 C 2,1 C 100 % 1029,2 hPa 0,0 l/m 0,00 h 0,00 h 0 W/m 0,0 km/h (0 Bft) 95,97 %
03.12.2019 07:00 4,1 C 3,6 C 2,9 C 100 % 1029,6 hPa 0,0 l/m 0,00 h 0,00 h 0 W/m 0,2 km/h (0 Bft) 96,83 %
03.12.2019 08:00 4,3 C 3,8 C 3,3 C 100 % 1029,8 hPa 0,0 l/m 0,00 h 0,00 h 7 W/m 1,1 km/h (0 Bft) 97,63 %
03.12.2019 09:00 4,5 C 4,1 C 3,6 C 100 % 1029,9 hPa 0,0 l/m 0,00 h 0,00 h 27 W/m 1,7 km/h (1 Bft) 96,12 %
03.12.2019 10:00 5,0 C 4,8 C 4,2 C 100 % 1029,9 hPa 0,0 l/m 0,00 h 0,00 h 60 W/m 1,3 km/h (1 Bft) 96,07 %
03.12.2019 11:00 5,6 C 5,7 C 5,0 C 100 % 1029,8 hPa 0,0 l/m 0,00 h 0,00 h 93 W/m 0,5 km/h (0 Bft) 97,06 %
03.12.2019 12:00 6,2 C 6,6 C 5,7 C 100 % 1029,1 hPa 0,0 l/m 0,00 h 0,00 h 115 W/m 2,7 km/h (1 Bft) 97,39 %
03.12.2019 13:00 7,0 C 8,1 C 6,2 C 100 % 1028,6 hPa 0,0 l/m 0,40 h 0,00 h 148 W/m 0,6 km/h (0 Bft) 97,93 %
03.12.2019 14:00 7,2 C 7,6 C 5,7 C 100 % 1028,1 hPa 0,0 l/m 0,50 h 0,00 h 119 W/m 3,0 km/h (1 Bft) 95,94 %
03.12.2019 15:00 6,4 C 5,7 C 4,7 C 98 % 1028,2 hPa 0,0 l/m 0,00 h 0,00 h 40 W/m 2,6 km/h (1 Bft) 98,45 %
03.12.2019 16:00 5,4 C 3,9 C 2,9 C 97 % 1028,0 hPa 0,0 l/m 0,00 h 0,00 h 10 W/m 0,2 km/h (0 Bft) 96,93 %
03.12.2019 17:00 4,2 C 2,6 C 1,2 C 96 % 1028,0 hPa 0,0 l/m 0,00 h 0,00 h 0 W/m 0,0 km/h (0 Bft) 98,31 %
03.12.2019 18:00 3,4 C 2,5 C 1,0 C 96 % 1028,0 hPa 0,0 l/m 0,00 h 0,00 h 0 W/m 0,4 km/h (0 Bft) 96,57 %
03.12.2019 19:00 3,4 C 2,5 C 1,7 C 97 % 1027,9 hPa 0,0 l/m 0,00 h 0,00 h 0 W/m 1,9 km/h (1 Bft) 96,63 %
03.12.2019 20:00 3,1 C 1,9 C 1,1 C 97 % 1027,5 hPa 0,0 l/m 0,00 h 0,00 h 0 W/m 0,5 km/h (0 Bft) 98,93 %
03.12.2019 21:00 2,4 C 0,9 C 0,6 C 98 % 1027,3 hPa 0,0 l/m 0,00 h 0,00 h 0 W/m 0,2 km/h (0 Bft) 97,01 %
03.12.2019 22:00 1,5 C -0,5 C -0,9 C 97 % 1027,1 hPa 0,0 l/m 0,00 h 0,00 h 0 W/m 0,0 km/h (0 Bft) 96,23 %
03.12.2019 23:00 0,4 C -1,3 C -1,5 C 97 % 1026,9 hPa 0,0 l/m 0,00 h 0,00 h 0 W/m 0,0 km/h (0 Bft) 98,00 %
04.12.2019 00:00 -0,2 C -1,4 C -1,8 C 97 % 1026,6 hPa 0,0 l/m 0,00 h 0,00 h 0 W/m 0,1 km/h (0 Bft) 95,79 %
04.12.2019 01:00 -0,4 C -1,2 C -1,6 C 97 % 1025,9 hPa 0,0 l/m 0,00 h 0,00 h 0 W/m 0,9 km/h (0 Bft) 94,42 %
04.12.2019 02:00 -0,2 C -1,1 C -1,2 C 98 % 1025,5 hPa 0,0 l/m 0,00 h 0,00 h 0 W/m 0,0 km/h (0 Bft) 98,01 %
04.12.2019 03:00 -0,4 C -1,8 C -1,8 C 98 % 1025,1 hPa 0,0 l/m 0,00 h 0,00 h 0 W/m 0,4 km/h (0 Bft) 96,15 %
04.12.2019 04:00 -0,8 C -2,3 C -2,6 C 98 % 1024,7 hPa 0,0 l/m 0,00 h 0,00 h 0 W/m 0,0 km/h (0 Bft) 98,01 %
04.12.2019 05:00 -1,1 C -1,4 C -1,7 C 98 % 1024,6 hPa 0,0 l/m 0,00 h 0,00 h 0 W/m 2,8 km/h (1 Bft) 97,44 %
04.12.2019 06:00 1,1 C 0,9 C 0,4 C 99 % 1024,5 hPa 0,2 l/m 0,00 h 0,00 h 0 W/m 12,8 km/h (3 Bft) 94,72 %
04.12.2019 07:00 1,9 C 1,2 C 1,0 C 99 % 1024,5 hPa 0,0 l/m 0,00 h 0,00 h 0 W/m 10,1 km/h (2 Bft) 98,26 %
04.12.2019 08:00 2,1 C 1,5 C 1,0 C 100 % 1024,4 hPa 0,0 l/m 0,00 h 0,00 h 14 W/m 10,8 km/h (2 Bft) 94,42 %
04.12.2019 09:00 1,9 C 1,5 C 0,8 C 100 % 1024,4 hPa 0,0 l/m 0,03 h 0,00 h 48 W/m 7,1 km/h (2 Bft) 95,71 %
04.12.2019 10:00 2,1 C 1,8 C 1,2 C 100 % 1024,4 hPa 0,0 l/m 0,00 h 0,00 h 62 W/m 19,4 km/h (3 Bft) 98,79 %
04.12.2019 11:00 2,6 C 3,9 C 2,1 C 100 % 1023,8 hPa 0,0 l/m 0,63 h 0,00 h 192 W/m 17,3 km/h (3 Bft) 97,09 %
04.12.2019 12:00 4,2 C 7,8 C 4,1 C 100 % 1022,9 hPa 0,0 l/m 1,00 h 0,00 h 275 W/m 14,0 km/h (3 Bft) 97,42 %
04.12.2019 13:00 5,8 C 9,7 C 4,9 C 95 % 1022,2 hPa 0,0 l/m 1,00 h 0,00 h 253 W/m 14,9 km/h (3 Bft) 95,87 %
04.12.2019 14:00 6,6 C 8,3 C 4,6 C 83 % 1021,8 hPa 0,0 l/m 0,70 h 0,00 h 149 W/m 7,9 km/h (2 Bft) 99,43 %
04.12.2019 15:00 6,0 C 5,4 C 4,0 C 84 % 1021,5 hPa 0,0 l/m 0,00 h 0,00 h 28 W/m 3,7 km/h (1 Bft) 95,37 %
04.12.2019 16:00 5,2 C 3,1 C 2,1 C 84 % 1021,3 hPa 0,0 l/m 0,00 h 0,00 h 10 W/m 1,1 km/h (0 Bft) 98,15 %
04.12.2019 17:00 3,2 C 1,0 C -0,2 C 87 % 1021,3 hPa 0,0 l/m 0,00 h 0,00 h 0 W/m 0,0 km/h (0 Bft) 98,50 %
04.12.2019 18:00 1,8 C -0,0 C -1,0 C 89 % 1021,3 hPa 0,0 l/m 0,00 h 0,00 h 0 W/m 0,0 km/h (0 Bft) 96,50 %
04.12.2019 19:00 0,9 C -0,2 C -1,5 C 91 % 1021,0 hPa 0,0 l/m 0,00 h 0,00 h 0 W/m 0,2 km/h (0 Bft) 96,26 %
04.12.2019 20:00 0,6 C -0,1 C -1,5 C 93 % 1020,9 hPa 0,0 l/m 0,00 h 0,00 h 0 W/m 0,6 km/h (0 Bft) 95,57 %
04.12.2019 21:00 1,0 C 0,4 C -1,3 C 95 % 1021,1 hPa 0,0 l/m 0,00 h 0,00 h 0 W/m 0,1 km/h (0 Bft) 96,31 %
04.12.2019 22:00 1,0 C 0,7 C -1,1 C 95 % 1021,0 hPa 0,0 l/m 0,00 h 0,00 h 0 W/m 1,7 km/h (1 Bft) 96,55 %
04.12.2019 23:00 1,0 C 0,5 C -0,8 C 96 % 1020,7 hPa 0,0 l/m 0,00 h 0,00 h 0 W/m 4,1 km/h (1 Bft) 95,00 %
05.12.2019 00:00 1,0 C 0,4 C -0,4 C 95 % 1020,9 hPa 0,0 l/m 0,00 h 0,00 h 0 W/m 5,8 km/h (2 Bft) 95,72 %
05.12.2019 01:00 0,6 C -0,3 C -0,9 C 95 % 1020,6 hPa 0,0 l/m 0,00 h 0,00 h 0 W/m 7,9 km/h (2 Bft) 98,01 %
05.12.2019 02:00 0,3 C -0,6 C -1,1 C 95 % 1021,0 hPa 0,0 l/m 0,00 h 0,00 h 0 W/m 4,6 km/h (1 Bft) 95,59 %
05.12.2019 03:00 -0,1 C -1,0 C -1,7 C 96 % 1021,0 hPa 0,0 l/m 0,00 h 0,00 h 0 W/m 5,2 km/h (1 Bft) 97,11 %
05.12.2019 04:00 -0,4 C -1,1 C -1,7 C 96 % 1021,2 hPa 0,0 l/m 0,00 h 0,00 h 0 W/m 5,5 km/h (1 Bft) 97,49 %
05.12.2019 05:00 -0,7 C -1,8 C -2,4 C 96 % 1021,6 hPa 0,0 l/m 0,00 h 0,00 h 0 W/m 0,9 km/h (0 Bft) 95,10 %
05.12.2019 06:00 -1,0 C -1,8 C -2,3 C 96 % 1021,4 hPa 0,0 l/m 0,00 h 0,00 h 0 W/m 2,0 km/h (1 Bft) 97,79 %
05.12.2019 07:00 -1,3 C -2,5 C -2,9 C 97 % 1021,9 hPa 0,0 l/m 0,00 h 0,00 h 0 W/m 0,0 km/h (0 Bft) 94,84 %
05.12.2019 08:00 -1,3 C -1,2 C -1,7 C 97 % 1022,5 hPa 0,0 l/m 0,00 h 0,00 h 10 W/m 0,0 km/h (0 Bft) 98,03 %
05.12.2019 09:00 -0,4 C -0,6 C -0,9 C 97 % 1022,7 hPa 0,0 l/m 0,00 h 0,00 h 33 W/m 3,0 km/h (1 Bft) 98,02 %
05.12.2019 10:00 0,0 C -0,1 C -0,5 C 98 % 1022,8 hPa 0,2 l/m 0,00 h 0,00 h 60 W/m 3,3 km/h (1 Bft) 95,02 %
05.12.2019 11:00 1,1 C 4,3 C 0,8 C 98 % 1022,4 hPa 0,0 l/m 0,83 h 0,00 h 217 W/m 2,9 km/h (1 Bft) 98,02 %
05.12.2019 12:00 3,5 C 8,3 C 3,4 C 98 % 1021,7 hPa 0,0 l/m 1,02 h 0,00 h 279 W/m 11,1 km/h (2 Bft) 97,53 %
05.12.2019 13:00 5,3 C 8,4 C 4,0 C 86 % 1021,3 hPa 0,0 l/m 0,98 h 0,00 h 245 W/m 13,1 km/h (3 Bft) 98,94 %
05.12.2019 14:00 5,5 C 6,3 C 3,5 C 81 % 1021,3 hPa 0,0 l/m 0,70 h 0,00 h 135 W/m 7,5 km/h (2 Bft) 96,39 %
05.12.2019 15:00 4,6 C 3,7 C 2,9 C 83 % 1021,1 hPa 0,0 l/m 0,10 h 0,00 h 53 W/m 9,4 km/h (2 Bft) 98,52 %
05.12.2019 16:00 3,6 C 2,7 C 2,1 C 89 % 1021,0 hPa 0,0 l/m 0,00 h 0,00 h 10 W/m 9,3 km/h (2 Bft) 96,26 %
05.12.2019 17:00 2,9 C 1,8 C 1,3 C 91 % 1020,7 hPa 0,0 l/m 0,00 h 0,00 h 0 W/m 8,1 km/h (2 Bft) 95,83 %
05.12.2019 18:00 2,2 C 1,3 C 0,8 C 92 % 1020,6 hPa 0,0 l/m 0,00 h 0,00 h 0 W/m 12,2 km/h (2 Bft) 99,19 %
05.12.2019 19:00 1,4 C 0,6 C 0,2 C 94 % 1020,2 hPa 0,0 l/m 0,00 h 0,00 h 0 W/m 18,8 km/h (3 Bft) 96,22 %
05.12.2019 20:00 1,0 C 0,4 C 0,0 C 95 % 1019,7 hPa 0,0 l/m 0,00 h 0,00 h 0 W/m 21,2 km/h (4 Bft) 97,45 %
05.12.2019 21:00 1,1 C 0,4 C -0,1 C 95 % 1019,3 hPa 0,0 l/m 0,00 h 0,00 h 0 W/m 13,6 km/h (3 Bft) 97,36 %
05.12.2019 22:00 0,9 C 0,4 C -0,2 C 96 % 1019,0 hPa 0,0 l/m 0,00 h 0,00 h 0 W/m 14,4 km/h (3 Bft) 96,65 %
05.12.2019 23:00 0,9 C 0,3 C -0,1 C 96 % 1018,8 hPa 0,0 l/m 0,00 h 0,00 h 0 W/m 20,0 km/h (4 Bft) 99,57 %
06.12.2019 00:00 0,5 C 0,0 C -0,6 C 95 % 1018,2 hPa 0,0 l/m 0,00 h 0,00 h 0 W/m 17,7 km/h (3 Bft) 91,67 %
06.12.2019 01:00 0,6 C 0,2 C -0,4 C 94 % 1017,2 hPa 0,0 l/m 0,00 h 0,00 h 0 W/m 15,7 km/h (3 Bft) 95,39 %
06.12.2019 02:00 1,0 C 0,7 C 0,1 C 94 % 1016,5 hPa 0,0 l/m 0,00 h 0,00 h 0 W/m 17,3 km/h (3 Bft) 97,39 %
06.12.2019 03:00 1,5 C 0,9 C 0,3 C 94 % 1016,0 hPa 0,0 l/m 0,00 h 0,00 h 0 W/m 14,8 km/h (3 Bft) 96,72 %
06.12.2019 04:00 1,3 C 0,6 C 0,5 C 93 % 1015,3 hPa 0,0 l/m 0,00 h 0,07 h 0 W/m 15,2 km/h (3 Bft) 95,48 %
06.12.2019 05:00 1,3 C 0,6 C 0,3 C 93 % 1015,0 hPa 0,0 l/m 0,00 h 0,20 h 0 W/m 16,5 km/h (3 Bft) 98,36 %
06.12.2019 06:00 1,4 C 0,9 C 0,4 C 93 % 1014,6 hPa 0,0 l/m 0,00 h 0,00 h 0 W/m 18,0 km/h (3 Bft) 97,01 %
06.12.2019 07:00 1,7 C 1,2 C 0,8 C 93 % 1014,3 hPa 0,0 l/m 0,00 h 0,00 h 0 W/m 18,4 km/h (3 Bft) 97,51 %
06.12.2019 08:00 2,1 C 1,9 C 1,2 C 92 % 1014,1 hPa 0,0 l/m 0,00 h 0,10 h 3 W/m 17,8 km/h (3 Bft) 97,00 %
06.12.2019 09:00 2,5 C 1,3 C 0,9 C 92 % 1013,9 hPa 0,2 l/m 0,00 h 0,70 h 9 W/m 15,3 km/h (3 Bft) 97,37 %
06.12.2019 10:00 3,0 C 1,8 C 1,3 C 93 % 1013,5 hPa 0,6 l/m 0,00 h 1,00 h 22 W/m 17,7 km/h (3 Bft) 98,36 %
06.12.2019 11:00 3,1 C 2,1 C 1,6 C 95 % 1012,7 hPa 1,4 l/m 0,00 h 1,00 h 22 W/m 15,7 km/h (3 Bft) 95,51 %
06.12.2019 12:00 5,1 C 4,6 C 3,9 C 97 % 1011,4 hPa 0,0 l/m 0,00 h 0,10 h 26 W/m 25,6 km/h (4 Bft) 98,93 %
06.12.2019 13:00 6,3 C 5,2 C 4,6 C 96 % 1010,5 hPa 0,4 l/m 0,00 h 0,77 h 18 W/m 23,6 km/h (4 Bft) 98,65 %
06.12.2019 14:00 6,7 C 5,6 C 5,0 C 96 % 1009,4 hPa 0,4 l/m 0,00 h 0,80 h 10 W/m 19,5 km/h (3 Bft) 92,90 %
06.12.2019 15:00 6,9 C 5,6 C 5,0 C 96 % 1008,4 hPa 0,2 l/m 0,00 h 0,97 h 10 W/m 27,1 km/h (4 Bft) 99,57 %
06.12.2019 16:00 6,9 C 5,6 C 5,0 C 96 % 1007,8 hPa 0,2 l/m 0,00 h 0,97 h 5 W/m 29,8 km/h (5 Bft) 95,65 %
06.12.2019 17:00 7,1 C 5,7 C 5,3 C 96 % 1007,4 hPa 0,0 l/m 0,00 h 0,57 h 0 W/m 29,5 km/h (5 Bft) 96,72 %
06.12.2019 18:00 7,1 C 5,8 C 5,5 C 97 % 1007,1 hPa 0,4 l/m 0,00 h 0,77 h 0 W/m 31,8 km/h (5 Bft) 99,04 %
06.12.2019 19:00 6,8 C 5,6 C 5,0 C 97 % 1006,9 hPa 0,0 l/m 0,00 h 0,47 h 0 W/m 29,1 km/h (5 Bft) 95,87 %
06.12.2019 20:00 6,7 C 5,6 C 5,1 C 98 % 1006,6 hPa 0,2 l/m 0,00 h 0,03 h 0 W/m 31,1 km/h (5 Bft) 98,29 %
06.12.2019 21:00 6,9 C 5,8 C 5,3 C 98 % 1006,3 hPa 0,0 l/m 0,00 h 0,10 h 0 W/m 29,7 km/h (5 Bft) 97,29 %
06.12.2019 22:00 7,6 C 6,7 C 6,1 C 97 % 1005,9 hPa 0,0 l/m 0,00 h 0,27 h 0 W/m 31,8 km/h (5 Bft) 95,16 %
06.12.2019 23:00 8,0 C 6,8 C 6,2 C 96 % 1006,0 hPa 0,2 l/m 0,00 h 0,87 h 0 W/m 32,8 km/h (5 Bft) 97,38 %
07.12.2019 00:00 8,3 C 7,2 C 6,7 C 97 % 1006,2 hPa 0,4 l/m 0,00 h 0,97 h 0 W/m 25,9 km/h (4 Bft) 95,83 %
07.12.2019 01:00 8,5 C 7,2 C 6,7 C 98 % 1006,7 hPa 1,0 l/m 0,00 h 1,00 h 0 W/m 19,4 km/h (3 Bft) 97,65 %
07.12.2019 02:00 8,6 C 7,5 C 7,0 C 98 % 1007,5 hPa 0,6 l/m 0,00 h 0,47 h 0 W/m 17,7 km/h (3 Bft) 98,86 %
07.12.2019 03:00 8,6 C 7,3 C 6,8 C 98 % 1008,3 hPa 0,6 l/m 0,00 h 0,77 h 0 W/m 18,6 km/h (3 Bft) 96,68 %
07.12.2019 04:00 8,5 C 7,2 C 6,7 C 98 % 1009,3 hPa 0,4 l/m 0,00 h 0,90 h 0 W/m 15,1 km/h (3 Bft) 97,77 %
07.12.2019 05:00 8,4 C 7,2 C 6,7 C 98 % 1010,2 hPa 0,0 l/m 0,00 h 0,57 h 0 W/m 16,0 km/h (3 Bft) 97,93 %
07.12.2019 06:00 8,3 C 7,2 C 6,7 C 98 % 1011,0 hPa 0,0 l/m 0,00 h 0,00 h 0 W/m 14,2 km/h (3 Bft) 98,23 %
07.12.2019 07:00 8,2 C 6,9 C 6,4 C 97 % 1011,8 hPa 0,0 l/m 0,00 h 0,17 h 0 W/m 15,5 km/h (3 Bft) 97,01 %
07.12.2019 08:00 7,9 C 6,7 C 6,1 C 97 % 1012,4 hPa 0,0 l/m 0,00 h 0,00 h 14 W/m 13,3 km/h (3 Bft) 96,66 %
07.12.2019 09:00 8,1 C 7,2 C 6,7 C 97 % 1013,2 hPa 0,0 l/m 0,00 h 0,00 h 19 W/m 13,0 km/h (3 Bft) 98,72 %
07.12.2019 10:00 8,5 C 7,8 C 7,0 C 96 % 1013,8 hPa 0,0 l/m 0,00 h 0,00 h 41 W/m 13,2 km/h (3 Bft) 93,40 %
07.12.2019 11:00 8,7 C 8,4 C 7,4 C 95 % 1014,2 hPa 0,0 l/m 0,00 h 0,00 h 53 W/m 14,0 km/h (3 Bft) 99,00 %
07.12.2019 12:00 9,1 C 9,1 C 8,5 C 93 % 1013,9 hPa 0,0 l/m 0,00 h 0,00 h 88 W/m 19,1 km/h (3 Bft) 98,45 %
07.12.2019 13:00 9,5 C 9,5 C 8,9 C 91 % 1014,2 hPa 0,0 l/m 0,00 h 0,00 h 101 W/m 13,5 km/h (3 Bft) 94,87 %
07.12.2019 14:00 9,7 C 9,5 C 8,8 C 88 % 1014,4 hPa 0,0 l/m 0,20 h 0,00 h 86 W/m 15,5 km/h (3 Bft) 99,71 %
07.12.2019 15:00 9,4 C 8,6 C 8,1 C 88 % 1014,4 hPa 0,0 l/m 0,00 h 0,00 h 27 W/m 13,3 km/h (3 Bft) 96,94 %
07.12.2019 16:00 9,1 C 8,3 C 7,8 C 89 % 1015,0 hPa 0,0 l/m 0,00 h 0,00 h 6 W/m 14,9 km/h (3 Bft) 96,37 %
07.12.2019 17:00 9,0 C 8,3 C 7,8 C 89 % 1015,2 hPa 0,0 l/m 0,00 h 0,00 h 0 W/m 13,6 km/h (3 Bft) 98,29 %
07.12.2019 18:00 8,9 C 8,3 C 7,8 C 86 % 1015,4 hPa 0,0 l/m 0,00 h 0,00 h 0 W/m 14,2 km/h (3 Bft) 98,01 %
07.12.2019 19:00 8,8 C 8,2 C 7,4 C 85 % 1015,6 hPa 0,0 l/m 0,00 h 0,00 h 0 W/m 13,4 km/h (3 Bft) 95,09 %
07.12.2019 20:00 8,8 C 8,0 C 7,3 C 87 % 1015,4 hPa 0,0 l/m 0,00 h 0,00 h 0 W/m 17,5 km/h (3 Bft) 97,23 %
07.12.2019 21:00 8,8 C 8,1 C 7,6 C 88 % 1014,8 hPa 0,0 l/m 0,00 h 0,00 h 0 W/m 20,9 km/h (4 Bft) 99,57 %
07.12.2019 22:00 8,8 C 8,3 C 7,8 C 89 % 1014,4 hPa 0,0 l/m 0,00 h 0,00 h 0 W/m 20,1 km/h (4 Bft) 94,94 %
07.12.2019 23:00 8,8 C 8,3 C 7,8 C 88 % 1013,7 hPa 0,0 l/m 0,00 h 0,00 h 0 W/m 21,5 km/h (4 Bft) 98,08 %
08.12.2019 00:00 8,9 C 8,3 C 7,8 C 85 % 1013,1 hPa 0,0 l/m 0,00 h 0,00 h 0 W/m 19,2 km/h (3 Bft) 99,07 %
08.12.2019 01:00 9,1 C 8,3 C 7,8 C 84 % 1011,7 hPa 0,0 l/m 0,00 h 0,00 h 0 W/m 25,8 km/h (4 Bft) 95,15 %
08.12.2019 02:00 9,2 C 8,5 C 7,8 C 84 % 1010,7 hPa 0,0 l/m 0,00 h 0,00 h 0 W/m 26,6 km/h (4 Bft) 98,72 %
08.12.2019 03:00 9,5 C 8,9 C 8,3 C 83 % 1009,6 hPa 0,0 l/m 0,00 h 0,00 h 0 W/m 36,1 km/h (5 Bft) 98,15 %
08.12.2019 04:00 9,7 C 8,9 C 8,3 C 82 % 1008,5 hPa 0,0 l/m 0,00 h 0,00 h 0 W/m 28,3 km/h (4 Bft) 96,10 %
08.12.2019 05:00 10,0 C 9,3 C 8,8 C 82 % 1007,2 hPa 0,0 l/m 0,00 h 0,00 h 0 W/m 38,2 km/h (5 Bft) 96,80 %
08.12.2019 06:00 10,3 C 9,4 C 8,9 C 84 % 1005,9 hPa 0,0 l/m 0,00 h 0,00 h 0 W/m 34,9 km/h (5 Bft) 97,15 %
08.12.2019 07:00 10,4 C 9,9 C 9,2 C 85 % 1004,9 hPa 0,0 l/m 0,00 h 0,00 h 0 W/m 32,0 km/h (5 Bft) 96,66 %
08.12.2019 08:00 10,5 C 8,8 C 8,4 C 87 % 1003,8 hPa 0,2 l/m 0,00 h 0,77 h 6 W/m 31,8 km/h (5 Bft) 97,50 %
08.12.2019 09:00 10,1 C 8,3 C 8,3 C 91 % 1003,5 hPa 0,0 l/m 0,00 h 0,40 h 10 W/m 29,7 km/h (5 Bft) 94,94 %
08.12.2019 10:00 10,6 C 9,3 C 9,3 C 91 % 1002,9 hPa 0,0 l/m 0,00 h 0,00 h 19 W/m 31,0 km/h (5 Bft) 99,29 %
08.12.2019 11:00 10,9 C 9,6 C 9,2 C 92 % 1002,4 hPa 0,0 l/m 0,00 h 0,57 h 36 W/m 36,7 km/h (5 Bft) 98,36 %
08.12.2019 12:00 10,4 C 8,9 C 8,8 C 96 % 1002,0 hPa 0,2 l/m 0,00 h 0,67 h 25 W/m 35,0 km/h (5 Bft) 94,88 %
08.12.2019 13:00 10,3 C 9,2 C 8,9 C 97 % 1001,9 hPa 0,2 l/m 0,00 h 0,33 h 39 W/m 20,7 km/h (4 Bft) 99,48 %
08.12.2019 14:00 10,4 C 9,3 C 8,9 C 93 % 1001,6 hPa 0,0 l/m 0,00 h 0,17 h 53 W/m 16,4 km/h (3 Bft) 98,15 %
08.12.2019 15:00 10,2 C 9,6 C 8,7 C 87 % 1001,6 hPa 0,0 l/m 0,20 h 0,00 h 40 W/m 14,3 km/h (3 Bft) 95,30 %
08.12.2019 16:00 9,7 C 8,7 C 8,1 C 87 % 1001,5 hPa 0,0 l/m 0,17 h 0,00 h 12 W/m 16,2 km/h (3 Bft) 99,43 %
08.12.2019 17:00 9,1 C 8,2 C 7,6 C 86 % 1001,1 hPa 0,0 l/m 0,00 h 0,00 h 0 W/m 15,5 km/h (3 Bft) 95,30 %
08.12.2019 18:00 8,7 C 7,8 C 7,2 C 87 % 1000,6 hPa 0,0 l/m 0,00 h 0,00 h 0 W/m 20,6 km/h (4 Bft) 97,71 %
08.12.2019 19:00 8,5 C 7,8 C 7,2 C 87 % 1000,3 hPa 0,0 l/m 0,00 h 0,00 h 0 W/m 24,0 km/h (4 Bft) 98,32 %
08.12.2019 20:00 8,6 C 7,2 C 6,6 C 88 % 1000,1 hPa 0,6 l/m 0,00 h 0,57 h 0 W/m 22,4 km/h (4 Bft) 96,26 %
08.12.2019 21:00 7,5 C 5,6 C 5,3 C 91 % 999,6 hPa 0,2 l/m 0,00 h 0,37 h 0 W/m 20,9 km/h (4 Bft) 97,88 %
08.12.2019 22:00 7,0 C 5,1 C 4,5 C 86 % 999,6 hPa 0,2 l/m 0,00 h 0,43 h 0 W/m 26,4 km/h (4 Bft) 96,13 %
08.12.2019 23:00 6,7 C 5,9 C 4,8 C 90 % 999,8 hPa 0,0 l/m 0,00 h 0,00 h 0 W/m 22,2 km/h (4 Bft) 94,77 %
Min-Datum _ 05.12.19 05.12.19 05.12.19 05.12.19 08.12.19 - - - - 02.12.19 06.12.19
_ Min-Zeit 08:02 07:26 07:20 14:00 21:08 - - - - 00:00 00:02
Minimum _ -1,7 C -3,3 C -3,3 C 81 % 999,4 hPa - - - - 0,0 km/h (0 Bft) 9,52 %
Max-Datum _ 08.12.19 04.12.19 07.12.19 03.12.19 03.12.19 06.12.19 04.12.19 06.12.19 02.12.19 08.12.19 02.12.19
_ Max-Zeit 11:14 13:16 14:16 02:12 10:50 11:06 12:08 18:08 12:26 11:04 00:00
Maximum _ 11,0 C 10,6 C 9,4 C 100 % 1030,1 hPa 1,4 l/m 0,07 h 0,07 h 302 W/m 61,2 km/h
S-SO (7 Bft)
100,00 %
Durchschnitt _ 4,7 C 4,1 C 3,2 C 94 % 1018,2 hPa #10,4 l/m #10:12 h #20:04 h 67 W/m 11,7 km/h (2 Bft) 97,03 %
© 2019 W. Hausmann